Time;durP1;ratioP1;P1;durP2;ratioP2;P2;SDS_P1;SDS_P2;PMS_P1;PMS_P2;Temp;Humidity;BMP_temperature;BMP_pressure;BME280_temperature;BME280_humidity;BME280_pressure;Samples;Min_cycle;Max_cycle;Signal;HPM_P1;HPM_P2
2021/01/21 00:00:27;;;;;;;5.00;3.08;;;;;;;;;;4991139;28;20109;-71
2021/01/21 00:02:53;;;;;;;3.88;2.40;;;;;;;;;;5008116;28;20098;-72
2021/01/21 00:05:20;;;;;;;4.10;2.95;;;;;;;;;;4991102;28;20054;-70
2021/01/21 00:07:46;;;;;;;3.00;1.92;;;;;;;;;;5007805;28;20054;-70
2021/01/21 00:10:12;;;;;;;2.63;1.80;;;;;;;;;;4976415;28;20754;-70
2021/01/21 00:12:38;;;;;;;3.00;2.45;;;;;;;;;;4975408;28;20042;-71
2021/01/21 00:15:05;;;;;;;2.70;2.10;;;;;;;;;;4976568;28;20055;-72
2021/01/21 00:17:31;;;;;;;3.03;2.05;;;;;;;;;;4975012;28;20125;-72
2021/01/21 00:19:57;;;;;;;3.80;2.45;;;;;;;;;;4976528;28;20054;-71
2021/01/21 00:22:23;;;;;;;3.50;2.30;;;;;;;;;;4976424;28;20101;-70
2021/01/21 00:24:49;;;;;;;4.28;2.67;;;;;;;;;;4976644;28;20055;-71
2021/01/21 00:27:15;;;;;;;4.78;2.70;;;;;;;;;;4974604;28;20047;-71
2021/01/21 00:29:41;;;;;;;5.78;3.10;;;;;;;;;;4976124;28;20078;-71
2021/01/21 00:32:07;;;;;;;3.83;3.08;;;;;;;;;;4975068;28;20556;-71
2021/01/21 00:34:33;;;;;;;5.05;3.35;;;;;;;;;;4976375;28;20109;-70
2021/01/21 00:36:59;;;;;;;6.65;3.05;;;;;;;;;;4975629;28;20105;-71
2021/01/21 00:39:26;;;;;;;5.43;3.80;;;;;;;;;;4975019;28;20102;-71
2021/01/21 00:41:52;;;;;;;7.28;4.55;;;;;;;;;;4974944;28;20460;-72
2021/01/21 00:44:18;;;;;;;8.50;4.97;;;;;;;;;;5007200;28;20450;-72
2021/01/21 00:46:44;;;;;;;8.80;5.70;;;;;;;;;;5006715;28;20426;-71
2021/01/21 00:49:10;;;;;;;8.10;5.60;;;;;;;;;;4976030;28;20055;-72
2021/01/21 00:51:36;;;;;;;8.20;5.40;;;;;;;;;;4975976;28;20101;-70
2021/01/21 00:54:03;;;;;;;6.78;4.57;;;;;;;;;;4974590;28;20094;-71
2021/01/21 00:56:29;;;;;;;7.97;4.63;;;;;;;;;;4990297;28;20082;-71
2021/01/21 00:58:55;;;;;;;5.50;3.83;;;;;;;;;;5006981;28;20078;-71
2021/01/21 01:01:21;;;;;;;6.05;3.72;;;;;;;;;;4974743;28;20560;-71
2021/01/21 01:03:47;;;;;;;4.68;3.67;;;;;;;;;;4990735;28;20125;-71
2021/01/21 01:06:13;;;;;;;5.13;3.50;;;;;;;;;;4974842;28;20568;-71
2021/01/21 01:08:39;;;;;;;5.50;3.70;;;;;;;;;;4975634;28;20417;-71
2021/01/21 01:11:05;;;;;;;4.90;3.45;;;;;;;;;;4975407;28;20406;-71
2021/01/21 01:13:31;;;;;;;5.78;3.63;;;;;;;;;;5006862;28;20047;-71
2021/01/21 01:15:57;;;;;;;5.97;3.17;;;;;;;;;;4973658;28;20086;-71
2021/01/21 01:18:23;;;;;;;5.28;3.20;;;;;;;;;;4975347;28;20062;-71
2021/01/21 01:20:50;;;;;;;4.85;3.30;;;;;;;;;;4975220;28;20051;-71
2021/01/21 01:23:16;;;;;;;5.78;3.20;;;;;;;;;;4975467;28;20105;-70
2021/01/21 01:25:42;;;;;;;3.70;2.80;;;;;;;;;;4973700;28;20121;-71
2021/01/21 01:28:08;;;;;;;4.18;2.88;;;;;;;;;;4975251;28;20050;-71
2021/01/21 01:30:34;;;;;;;6.03;2.90;;;;;;;;;;4975195;28;20425;-71
2021/01/21 01:33:00;;;;;;;4.47;2.95;;;;;;;;;;4975141;28;20121;-72
2021/01/21 01:35:27;;;;;;;4.18;2.60;;;;;;;;;;5005380;28;20051;-72
2021/01/21 01:37:53;;;;;;;4.78;2.70;;;;;;;;;;5006195;28;20201;-71
2021/01/21 01:40:19;;;;;;;3.40;2.50;;;;;;;;;;4975176;28;20059;-71
2021/01/21 01:42:45;;;;;;;3.05;2.47;;;;;;;;;;4975084;28;20042;-71
2021/01/21 01:45:12;;;;;;;3.17;2.25;;;;;;;;;;4974556;28;20051;-71
2021/01/21 01:47:41;;;;;;;5.50;3.42;;;;;;;;;;4974696;28;20050;-71
2021/01/21 01:50:08;;;;;;;3.15;2.30;;;;;;;;;;4989687;28;20050;-71
2021/01/21 01:52:41;;;;;;;4.38;2.20;;;;;;;;;;4989611;28;20403;-71
2021/01/21 01:55:15;;;;;;;3.17;2.45;;;;;;;;;;5004226;28;20054;-69
2021/01/21 01:57:41;;;;;;;3.97;2.33;;;;;;;;;;4989480;28;20063;-71
2021/01/21 02:00:09;;;;;;;3.25;2.13;;;;;;;;;;4989631;28;20051;-71
2021/01/21 02:02:35;;;;;;;2.83;1.85;;;;;;;;;;4989600;28;20090;-70
2021/01/21 02:05:02;;;;;;;3.40;2.35;;;;;;;;;;4973175;28;20502;-70
2021/01/21 02:07:29;;;;;;;4.03;2.10;;;;;;;;;;4956916;28;20055;-70
2021/01/21 02:09:56;;;;;;;4.95;2.67;;;;;;;;;;4974615;28;20101;-70
2021/01/21 02:12:53;;;;;;;7.82;2.53;;;;;;;;;;4989321;28;20509;-71
2021/01/21 02:15:30;;;;;;;2.78;2.33;;;;;;;;;;4973662;28;20055;-71
2021/01/21 02:18:37;;;;;;;5.53;2.72;;;;;;;;;;5005450;28;20051;-71
2021/01/21 02:21:22;;;;;;;4.20;3.00;;;;;;;;;;4974254;28;20269;-71
2021/01/21 02:24:25;;;;;;;7.03;3.10;;;;;;;;;;4974132;28;20047;-71
2021/01/21 02:26:58;;;;;;;;;;;;;;;;;;4974016;28;20109;-71
2021/01/21 02:29:36;;;;;;;4.78;2.70;;;;;;;;;;4972815;28;19921;-71
2021/01/21 02:32:08;;;;;;;3.83;2.28;;;;;;;;;;4988862;28;20043;-71
2021/01/21 02:34:51;;;;;;;3.83;2.03;;;;;;;;;;4974066;28;20470;-71
2021/01/21 02:37:25;;;;;;;3.22;2.15;;;;;;;;;;4986649;28;20082;-72
2021/01/21 02:39:53;;;;;;;4.07;2.38;;;;;;;;;;4974010;28;20043;-72
2021/01/21 02:42:19;;;;;;;4.40;2.20;;;;;;;;;;4988729;28;20221;-71
2021/01/21 02:44:47;;;;;;;3.80;2.22;;;;;;;;;;5005040;28;20109;-71
2021/01/21 02:47:13;;;;;;;3.08;2.25;;;;;;;;;;4987760;28;20051;-71
2021/01/21 02:49:39;;;;;;;6.05;2.60;;;;;;;;;;4988731;28;20054;-72
2021/01/21 02:52:09;;;;;;;3.17;2.50;;;;;;;;;;4988607;28;20105;-71
2021/01/21 02:54:55;;;;;;;7.13;3.78;;;;;;;;;;5003921;28;20055;-71
2021/01/21 02:57:31;;;;;;;4.22;2.97;;;;;;;;;;5003823;28;20490;-71
2021/01/21 02:59:59;;;;;;;4.78;2.55;;;;;;;;;;4973632;28;20539;-72
2021/01/21 03:02:26;;;;;;;4.30;2.17;;;;;;;;;;4988115;28;20054;-71
2021/01/21 03:04:53;;;;;;;6.35;2.25;;;;;;;;;;4988392;28;20082;-69
2021/01/21 03:07:21;;;;;;;3.22;1.50;;;;;;;;;;5003346;28;20053;-69
2021/01/21 03:09:48;;;;;;;3.17;1.85;;;;;;;;;;4988529;28;20183;-69
2021/01/21 03:12:21;;;;;;;7.90;2.35;;;;;;;;;;5004716;28;20104;-69
2021/01/21 03:14:49;;;;;;;3.75;2.05;;;;;;;;;;5002900;28;20102;-69
2021/01/21 03:17:15;;;;;;;7.30;2.60;;;;;;;;;;4971307;28;20153;-69
2021/01/21 03:19:41;;;;;;;4.93;3.08;;;;;;;;;;4973322;28;20055;-69
2021/01/21 03:22:07;;;;;;;4.18;3.20;;;;;;;;;;4988180;28;20046;-69
2021/01/21 03:24:33;;;;;;;8.93;3.83;;;;;;;;;;4972087;28;20501;-69
2021/01/21 03:26:59;;;;;;;4.20;2.90;;;;;;;;;;5003725;28;20047;-69
2021/01/21 03:29:27;;;;;;;3.90;2.75;;;;;;;;;;4987978;28;20105;-69
2021/01/21 03:31:54;;;;;;;4.75;2.17;;;;;;;;;;4987760;28;20565;-69
2021/01/21 03:34:20;;;;;;;5.43;1.80;;;;;;;;;;4987029;28;20082;-69
2021/01/21 03:36:46;;;;;;;2.20;1.50;;;;;;;;;;4987464;28;20105;-69
2021/01/21 03:39:12;;;;;;;1.63;1.33;;;;;;;;;;5014701;23;20384;-71
2021/01/21 03:41:38;;;;;;;2.47;1.80;;;;;;;;;;5010834;28;20089;-73
2021/01/21 03:44:04;;;;;;;1.92;1.45;;;;;;;;;;5011935;28;20611;-73
2021/01/21 03:46:31;;;;;;;2.85;1.55;;;;;;;;;;5010192;28;20053;-73
2021/01/21 03:48:57;;;;;;;1.55;1.10;;;;;;;;;;5010706;28;20049;-73
2021/01/21 03:51:23;;;;;;;2.78;1.45;;;;;;;;;;5011831;28;20096;-73
2021/01/21 03:53:49;;;;;;;2.58;1.35;;;;;;;;;;5011896;28;20104;-73
2021/01/21 03:56:15;;;;;;;2.20;1.30;;;;;;;;;;5011205;28;20054;-73
2021/01/21 03:58:41;;;;;;;1.58;1.30;;;;;;;;;;5011781;28;20053;-73
2021/01/21 04:01:07;;;;;;;3.47;1.50;;;;;;;;;;5000367;28;20074;-73
2021/01/21 04:03:33;;;;;;;1.98;1.15;;;;;;;;;;4992306;28;20050;-71
2021/01/21 04:06:00;;;;;;;1.92;1.30;;;;;;;;;;4991640;28;20464;-72
2021/01/21 04:08:26;;;;;;;3.00;1.10;;;;;;;;;;4991065;28;20401;-71
2021/01/21 04:10:53;;;;;;;1.77;1.10;;;;;;;;;;4992317;28;20050;-71
2021/01/21 04:13:19;;;;;;;3.83;1.20;;;;;;;;;;4975083;28;20073;-71
2021/01/21 04:15:46;;;;;;;2.42;1.30;;;;;;;;;;4991389;28;20050;-71
2021/01/21 04:18:13;;;;;;;3.38;1.48;;;;;;;;;;4992023;28;20059;-71
2021/01/21 04:20:39;;;;;;;2.95;1.50;;;;;;;;;;4991032;28;20054;-71
2021/01/21 04:23:05;;;;;;;2.78;1.40;;;;;;;;;;4974617;28;20043;-71
2021/01/21 04:25:32;;;;;;;2.63;1.40;;;;;;;;;;5007951;28;20046;-71
2021/01/21 04:27:59;;;;;;;2.00;1.23;;;;;;;;;;5011345;28;20056;-71
2021/01/21 04:30:25;;;;;;;2.17;1.60;;;;;;;;;;5011412;28;20119;-71
2021/01/21 04:32:51;;;;;;;2.08;1.40;;;;;;;;;;4947593;28;23403;-71
2021/01/21 04:35:18;;;;;;;1.95;1.30;;;;;;;;;;4959275;28;20049;-71
2021/01/21 04:37:45;;;;;;;1.85;1.10;;;;;;;;;;4993854;28;20050;-71
2021/01/21 04:40:12;;;;;;;1.27;1.10;;;;;;;;;;5009380;28;20054;-71
2021/01/21 04:42:38;;;;;;;2.35;1.63;;;;;;;;;;5010060;28;20050;-71
2021/01/21 04:45:05;;;;;;;2.42;1.02;;;;;;;;;;5010773;28;20128;-71
2021/01/21 04:47:31;;;;;;;2.78;1.70;;;;;;;;;;5013558;28;20046;-71
2021/01/21 04:49:59;;;;;;;1.33;0.98;;;;;;;;;;5015109;28;20045;-71
2021/01/21 04:52:26;;;;;;;2.03;0.90;;;;;;;;;;5007669;28;20049;-71
2021/01/21 04:55:03;;;;;;;3.35;1.20;;;;;;;;;;4997507;28;20050;-71
2021/01/21 04:57:32;;;;;;;1.88;0.95;;;;;;;;;;4998276;28;20053;-71
2021/01/21 04:59:59;;;;;;;1.48;1.17;;;;;;;;;;5013582;28;20046;-71
2021/01/21 05:02:25;;;;;;;3.20;1.08;;;;;;;;;;5013560;28;20054;-71
2021/01/21 05:04:51;;;;;;;2.03;0.98;;;;;;;;;;4997382;28;20508;-71
2021/01/21 05:07:17;;;;;;;1.60;1.13;;;;;;;;;;5012904;28;20485;-71
2021/01/21 05:09:43;;;;;;;3.15;1.67;;;;;;;;;;5013599;28;20141;-71
2021/01/21 05:12:10;;;;;;;2.60;2.40;;;;;;;;;;5012919;28;20049;-71
2021/01/21 05:14:36;;;;;;;2.60;1.52;;;;;;;;;;5014278;28;20049;-71
2021/01/21 05:17:02;;;;;;;3.53;1.50;;;;;;;;;;5013846;28;20101;-71
2021/01/21 05:19:31;;;;;;;3.75;1.67;;;;;;;;;;4997120;28;20133;-71
2021/01/21 05:21:59;;;;;;;4.50;2.28;;;;;;;;;;5013218;28;20049;-71
2021/01/21 05:24:25;;;;;;;3.13;1.70;;;;;;;;;;5014173;28;20093;-71
2021/01/21 05:26:51;;;;;;;3.17;1.60;;;;;;;;;;5012475;28;20576;-71
2021/01/21 05:29:17;;;;;;;1.58;1.20;;;;;;;;;;4993173;28;20046;-71
2021/01/21 05:31:43;;;;;;;3.45;1.60;;;;;;;;;;4993717;28;20113;-71
2021/01/21 05:34:11;;;;;;;3.80;1.90;;;;;;;;;;4994508;28;20485;-71
2021/01/21 05:36:38;;;;;;;15.00;9.43;;;;;;;;;;4976891;28;20129;-71
2021/01/21 05:39:05;;;;;;;54.00;30.88;;;;;;;;;;4993189;28;20112;-71
2021/01/21 05:41:33;;;;;;;18.50;11.18;;;;;;;;;;4994529;28;20062;-71
2021/01/21 05:44:05;;;;;;;21.63;12.20;;;;;;;;;;4993336;28;20103;-72
2021/01/21 05:46:33;;;;;;;3.78;2.35;;;;;;;;;;4992597;28;20058;-72
2021/01/21 05:49:00;;;;;;;4.03;1.52;;;;;;;;;;4994276;28;20054;-72
2021/01/21 05:51:30;;;;;;;1.55;1.05;;;;;;;;;;4994277;28;20078;-71
2021/01/21 05:53:56;;;;;;;2.08;0.82;;;;;;;;;;4993139;28;20042;-72
2021/01/21 05:56:23;;;;;;;2.70;0.70;;;;;;;;;;4991753;28;20061;-71
2021/01/21 05:58:50;;;;;;;1.20;0.70;;;;;;;;;;4992678;28;20460;-71
2021/01/21 06:01:16;;;;;;;3.38;0.70;;;;;;;;;;4992899;28;20050;-71
2021/01/21 06:03:42;;;;;;;1.95;0.70;;;;;;;;;;4994265;28;20042;-71
2021/01/21 06:06:11;;;;;;;2.42;0.70;;;;;;;;;;4993311;28;20090;-71
2021/01/21 06:08:41;;;;;;;0.85;0.70;;;;;;;;;;4993955;28;20100;-71
2021/01/21 06:11:19;;;;;;;1.70;0.77;;;;;;;;;;4994008;28;20094;-71
2021/01/21 06:13:45;;;;;;;0.95;0.70;;;;;;;;;;4976810;28;20136;-71
2021/01/21 06:16:11;;;;;;;1.10;1.00;;;;;;;;;;4992116;28;20054;-71
2021/01/21 06:18:38;;;;;;;2.55;0.70;;;;;;;;;;4976530;28;20089;-71
2021/01/21 06:21:05;;;;;;;2.15;0.60;;;;;;;;;;4993797;28;20108;-71
2021/01/21 06:23:31;;;;;;;0.80;0.77;;;;;;;;;;4993594;28;20054;-71
2021/01/21 06:25:58;;;;;;;0.40;0.40;;;;;;;;;;4991829;28;20050;-71
2021/01/21 06:28:26;;;;;;;1.00;0.68;;;;;;;;;;4992480;28;20428;-71
2021/01/21 06:30:57;;;;;;;2.38;0.70;;;;;;;;;;4992451;28;20053;-71
2021/01/21 06:33:26;;;;;;;0.50;0.47;;;;;;;;;;4992449;28;20051;-71
2021/01/21 06:36:00;;;;;;;1.50;0.60;;;;;;;;;;4992737;28;20042;-71
2021/01/21 06:38:28;;;;;;;;;;;;;;;;;;4999406;28;20062;-70
2021/01/21 06:40:54;;;;;;;2.28;0.85;;;;;;;;;;4992279;28;19925;-71
2021/01/21 06:43:24;;;;;;;0.80;0.50;;;;;;;;;;4992027;28;20075;-70
2021/01/21 06:45:50;;;;;;;3.03;0.82;;;;;;;;;;4976164;28;20498;-71
2021/01/21 06:48:16;;;;;;;1.33;0.63;;;;;;;;;;5003903;28;20638;-71
2021/01/21 06:50:43;;;;;;;3.88;0.70;;;;;;;;;;5013008;28;20049;-70
2021/01/21 06:53:10;;;;;;;2.00;0.82;;;;;;;;;;4995269;28;20046;-70
2021/01/21 06:55:37;;;;;;;2.08;0.90;;;;;;;;;;5011029;28;20057;-71
2021/01/21 06:58:04;;;;;;;1.10;0.63;;;;;;;;;;5011414;28;20568;-70
2021/01/21 07:00:50;;;;;;;3.15;0.60;;;;;;;;;;5008097;28;20050;-70
2021/01/21 07:03:29;;;;;;;3.80;0.80;;;;;;;;;;4992874;28;20803;-71
2021/01/21 07:05:59;;;;;;;1.25;0.70;;;;;;;;;;4989598;28;20050;-70
2021/01/21 07:08:27;;;;;;;1.83;0.77;;;;;;;;;;4990725;28;20525;-70
2021/01/21 07:10:59;;;;;;;1.02;0.68;;;;;;;;;;4989782;28;20096;-70
2021/01/21 07:13:29;;;;;;;1.15;0.50;;;;;;;;;;4989420;28;20137;-70
2021/01/21 07:16:03;;;;;;;2.30;0.80;;;;;;;;;;4989126;28;20092;-70
2021/01/21 07:18:33;;;;;;;2.65;0.55;;;;;;;;;;4973919;28;20485;-70
2021/01/21 07:20:59;;;;;;;2.40;0.55;;;;;;;;;;4973630;28;20074;-70
2021/01/21 07:23:54;;;;;;;2.53;0.70;;;;;;;;;;4990671;28;20462;-70
2021/01/21 07:26:36;;;;;;;1.50;0.50;;;;;;;;;;4988953;28;20058;-70
2021/01/21 07:29:05;;;;;;;1.10;0.70;;;;;;;;;;4990349;28;20065;-71
2021/01/21 07:31:51;;;;;;;2.20;0.90;;;;;;;;;;4990048;28;20054;-70
2021/01/21 07:34:27;;;;;;;1.90;1.33;;;;;;;;;;4983203;28;20133;-70
2021/01/21 07:37:12;;;;;;;1.95;0.73;;;;;;;;;;4989701;28;20089;-70
2021/01/21 07:40:06;;;;;;;2.28;0.68;;;;;;;;;;4989890;28;20078;-71
2021/01/21 07:42:38;;;;;;;1.60;0.50;;;;;;;;;;4990197;28;20053;-70
2021/01/21 07:45:31;;;;;;;2.35;0.55;;;;;;;;;;4989479;28;20575;-69
2021/01/21 07:48:17;;;;;;;1.15;0.60;;;;;;;;;;4989195;28;20054;-70
2021/01/21 07:50:43;;;;;;;0.80;0.40;;;;;;;;;;4989265;28;20168;-70
2021/01/21 07:53:21;;;;;;;2.15;0.70;;;;;;;;;;4995912;28;20081;-70
2021/01/21 07:55:48;;;;;;;1.02;0.80;;;;;;;;;;5009165;28;20109;-70
2021/01/21 07:58:23;;;;;;;4.68;0.70;;;;;;;;;;5009240;28;20058;-69
2021/01/21 08:00:51;;;;;;;0.40;0.40;;;;;;;;;;5009824;28;20050;-71
2021/01/21 08:03:34;;;;;;;1.40;0.77;;;;;;;;;;5008482;28;20096;-70
2021/01/21 08:06:06;;;;;;;1.13;0.60;;;;;;;;;;5008661;28;20416;-70
2021/01/21 08:08:32;;;;;;;2.30;0.50;;;;;;;;;;5007905;28;20050;-70
2021/01/21 08:11:07;;;;;;;0.82;0.50;;;;;;;;;;5009027;28;20053;-70
2021/01/21 08:13:34;;;;;;;1.02;0.40;;;;;;;;;;5009413;28;20046;-70
2021/01/21 08:16:01;;;;;;;0.63;0.43;;;;;;;;;;5007585;28;20053;-69
2021/01/21 08:18:27;;;;;;;2.15;0.60;;;;;;;;;;4999317;28;20317;-69
2021/01/21 08:20:54;;;;;;;0.57;0.57;;;;;;;;;;4982620;28;20054;-71
2021/01/21 08:23:20;;;;;;;0.73;0.50;;;;;;;;;;4982911;28;20267;-74
2021/01/21 08:25:56;;;;;;;0.60;0.40;;;;;;;;;;4996483;28;20093;-73
2021/01/21 08:28:28;;;;;;;0.43;0.43;;;;;;;;;;4974709;28;20050;-75
2021/01/21 08:30:56;;;;;;;2.70;0.50;;;;;;;;;;4971572;28;20054;-71
2021/01/21 08:33:24;;;;;;;0.93;0.50;;;;;;;;;;5004409;28;20050;-68
2021/01/21 08:35:51;;;;;;;1.10;0.50;;;;;;;;;;4989632;28;20080;-71
2021/01/21 08:38:44;;;;;;;1.48;0.70;;;;;;;;;;4999542;28;20049;-71
2021/01/21 08:41:14;;;;;;;0.80;0.50;;;;;;;;;;4987145;28;20461;-69
2021/01/21 08:43:43;;;;;;;;;;;;;;;;;;4992636;28;20050;-71
2021/01/21 08:46:21;;;;;;;0.85;0.60;;;;;;;;;;5002738;28;19968;-69
2021/01/21 08:48:48;;;;;;;0.50;0.30;;;;;;;;;;4997116;28;20460;-71
2021/01/21 08:51:42;;;;;;;0.65;0.35;;;;;;;;;;4996176;28;20395;-72
2021/01/21 08:54:09;;;;;;;1.15;0.35;;;;;;;;;;4996631;28;20496;-69
2021/01/21 08:56:36;;;;;;;1.23;0.60;;;;;;;;;;5001332;28;20145;-69
2021/01/21 08:59:24;;;;;;;0.70;0.40;;;;;;;;;;4997238;28;20104;-71
2021/01/21 09:01:50;;;;;;;0.93;0.60;;;;;;;;;;5000748;28;20087;-71
2021/01/21 09:04:27;;;;;;;1.50;0.50;;;;;;;;;;4985150;28;20042;-71
2021/01/21 09:06:58;;;;;;;1.27;0.40;;;;;;;;;;5000436;28;20100;-72
2021/01/21 09:09:27;;;;;;;0.45;0.45;;;;;;;;;;4998661;28;20617;-71
2021/01/21 09:11:53;;;;;;;0.38;0.38;;;;;;;;;;4998707;28;20054;-71
2021/01/21 09:14:19;;;;;;;1.38;0.57;;;;;;;;;;5009094;28;20057;-71
2021/01/21 09:16:55;;;;;;;0.90;0.50;;;;;;;;;;5001610;28;20053;-71
2021/01/21 09:19:27;;;;;;;0.85;0.52;;;;;;;;;;4999472;28;20058;-72
2021/01/21 09:21:58;;;;;;;0.68;0.30;;;;;;;;;;5002963;28;20119;-71
2021/01/21 09:24:25;;;;;;;1.60;0.32;;;;;;;;;;5000413;28;20047;-72
2021/01/21 09:27:10;;;;;;;1.60;0.50;;;;;;;;;;4999942;28;20042;-71
2021/01/21 09:29:45;;;;;;;1.13;0.50;;;;;;;;;;5001334;28;20456;-71
2021/01/21 09:32:11;;;;;;;1.23;0.65;;;;;;;;;;4999014;28;20112;-71
2021/01/21 09:34:38;;;;;;;0.82;0.40;;;;;;;;;;5000050;28;20050;-71
2021/01/21 09:37:04;;;;;;;1.15;0.80;;;;;;;;;;4999845;28;20504;-71
2021/01/21 09:39:30;;;;;;;2.10;0.50;;;;;;;;;;5031310;22;20042;-70
2021/01/21 09:42:01;;;;;;;0.65;0.30;;;;;;;;;;5022112;28;20127;-70
2021/01/21 09:44:27;;;;;;;1.15;0.47;;;;;;;;;;5017242;28;20049;-70
2021/01/21 09:46:53;;;;;;;1.23;0.50;;;;;;;;;;5021338;28;20088;-70
2021/01/21 09:49:20;;;;;;;0.32;0.32;;;;;;;;;;5023020;28;20136;-69
2021/01/21 09:51:46;;;;;;;1.08;0.50;;;;;;;;;;5022673;28;20104;-69
2021/01/21 09:54:12;;;;;;;0.82;0.35;;;;;;;;;;5020714;28;20054;-70
2021/01/21 09:56:38;;;;;;;0.95;0.52;;;;;;;;;;5021524;28;20081;-70
2021/01/21 09:59:04;;;;;;;0.43;0.40;;;;;;;;;;5023294;28;20088;-70
2021/01/21 10:01:30;;;;;;;0.68;0.60;;;;;;;;;;5022579;28;20050;-70
2021/01/21 10:03:56;;;;;;;2.60;0.40;;;;;;;;;;5020828;28;20042;-69
2021/01/21 10:06:22;;;;;;;1.95;0.50;;;;;;;;;;5021738;28;20107;-69
2021/01/21 10:08:48;;;;;;;0.65;0.30;;;;;;;;;;5024261;28;20045;-69
2021/01/21 10:11:15;;;;;;;2.80;0.50;;;;;;;;;;5023568;28;20057;-69
2021/01/21 10:13:41;;;;;;;1.35;0.45;;;;;;;;;;5022460;28;20099;-70
2021/01/21 10:16:07;;;;;;;0.65;0.40;;;;;;;;;;5018779;28;20504;-69
2021/01/21 10:18:33;;;;;;;0.45;0.38;;;;;;;;;;5021188;28;20050;-70
2021/01/21 10:20:59;;;;;;;1.10;0.50;;;;;;;;;;5022249;28;20570;-70
2021/01/21 10:23:26;;;;;;;0.35;0.30;;;;;;;;;;5022117;28;20850;-69
2021/01/21 10:25:52;;;;;;;0.82;0.40;;;;;;;;;;5020417;28;20046;-70
2021/01/21 10:28:18;;;;;;;0.43;0.40;;;;;;;;;;5020363;28;20132;-70
2021/01/21 10:30:44;;;;;;;0.90;0.40;;;;;;;;;;5019854;28;20046;-70
2021/01/21 10:33:10;;;;;;;0.35;0.30;;;;;;;;;;5020554;28;20037;-69
2021/01/21 10:35:36;;;;;;;0.70;0.40;;;;;;;;;;5022430;28;20419;-69
2021/01/21 10:38:02;;;;;;;0.40;0.30;;;;;;;;;;5020776;28;20500;-70
2021/01/21 10:40:28;;;;;;;1.27;0.60;;;;;;;;;;5019889;28;20057;-70
2021/01/21 10:42:55;;;;;;;1.23;0.57;;;;;;;;;;5020235;28;20127;-69
2021/01/21 10:45:21;;;;;;;2.50;0.43;;;;;;;;;;5022391;28;20049;-70
2021/01/21 10:47:47;;;;;;;0.40;0.40;;;;;;;;;;5015294;28;20050;-69
2021/01/21 10:50:13;;;;;;;0.88;0.60;;;;;;;;;;5011524;28;20057;-69
2021/01/21 10:52:39;;;;;;;0.95;0.52;;;;;;;;;;4999428;28;20144;-69
2021/01/21 10:55:06;;;;;;;1.48;0.50;;;;;;;;;;5019502;28;20053;-69
2021/01/21 10:57:32;;;;;;;1.05;0.50;;;;;;;;;;5019907;28;20096;-69
2021/01/21 10:59:59;;;;;;;0.73;0.40;;;;;;;;;;5017647;28;20425;-74
2021/01/21 11:02:26;;;;;;;0.57;0.43;;;;;;;;;;5020297;28;20054;-73
2021/01/21 11:04:52;;;;;;;1.33;0.60;;;;;;;;;;5004697;28;20050;-73
2021/01/21 11:07:22;;;;;;;0.65;0.50;;;;;;;;;;5018875;28;20107;-75
2021/01/21 11:09:49;;;;;;;1.13;0.50;;;;;;;;;;4986486;28;20054;-75
2021/01/21 11:12:16;;;;;;;0.45;0.43;;;;;;;;;;5019868;28;20151;-73
2021/01/21 11:14:48;;;;;;;2.20;0.40;;;;;;;;;;5020863;28;20049;-71
2021/01/21 11:17:14;;;;;;;1.00;0.60;;;;;;;;;;5018218;28;20062;-70
2021/01/21 11:19:41;;;;;;;0.75;0.50;;;;;;;;;;5020039;28;20054;-70
2021/01/21 11:22:07;;;;;;;1.40;0.45;;;;;;;;;;5020721;28;20045;-71
2021/01/21 11:24:33;;;;;;;1.02;0.50;;;;;;;;;;5017739;28;20042;-72
2021/01/21 11:26:59;;;;;;;0.70;0.50;;;;;;;;;;5019807;28;20049;-71
2021/01/21 11:29:26;;;;;;;0.63;0.57;;;;;;;;;;5017730;28;20050;-71
2021/01/21 11:31:53;;;;;;;0.82;0.50;;;;;;;;;;5020458;28;20080;-71
2021/01/21 11:34:20;;;;;;;1.73;0.60;;;;;;;;;;5019854;28;20103;-72
2021/01/21 11:36:47;;;;;;;2.72;0.77;;;;;;;;;;5018606;28;20133;-72
2021/01/21 11:39:13;;;;;;;0.40;0.40;;;;;;;;;;5022991;28;20088;-70
2021/01/21 11:41:39;;;;;;;1.17;0.50;;;;;;;;;;5019482;28;20119;-72
2021/01/21 11:44:06;;;;;;;1.63;0.40;;;;;;;;;;5018858;28;20096;-73
2021/01/21 11:46:32;;;;;;;0.70;0.60;;;;;;;;;;5020475;28;20401;-70
2021/01/21 11:48:58;;;;;;;1.70;0.60;;;;;;;;;;5019166;28;20116;-72
2021/01/21 11:51:25;;;;;;;1.50;0.70;;;;;;;;;;5016796;28;20502;-73
2021/01/21 11:53:51;;;;;;;1.65;0.65;;;;;;;;;;5021195;28;20050;-74
2021/01/21 11:56:17;;;;;;;0.82;0.40;;;;;;;;;;5019231;28;20077;-74
2021/01/21 11:58:44;;;;;;;1.42;0.63;;;;;;;;;;5017835;28;20050;-72
2021/01/21 12:01:11;;;;;;;2.50;0.80;;;;;;;;;;5019153;28;20876;-69
2021/01/21 12:03:37;;;;;;;2.30;0.57;;;;;;;;;;5021157;28;20052;-70
2021/01/21 12:06:04;;;;;;;0.75;0.60;;;;;;;;;;5019269;28;20049;-72
2021/01/21 12:08:31;;;;;;;2.45;0.68;;;;;;;;;;5018206;28;20058;-70
2021/01/21 12:10:57;;;;;;;0.60;0.60;;;;;;;;;;5019087;28;20088;-70
2021/01/21 12:13:23;;;;;;;1.42;0.50;;;;;;;;;;5020120;28;20488;-71
2021/01/21 12:15:49;;;;;;;1.00;0.65;;;;;;;;;;5019453;28;20111;-70
2021/01/21 12:18:15;;;;;;;1.60;0.70;;;;;;;;;;5018764;28;20065;-71
2021/01/21 12:20:41;;;;;;;0.85;0.52;;;;;;;;;;5016455;28;20129;-70
2021/01/21 12:23:07;;;;;;;0.60;0.60;;;;;;;;;;5018042;28;20099;-70
2021/01/21 12:25:33;;;;;;;1.38;0.60;;;;;;;;;;5018278;28;20050;-69
2021/01/21 12:27:59;;;;;;;1.02;0.50;;;;;;;;;;5019414;28;20057;-70
2021/01/21 12:30:26;;;;;;;0.63;0.50;;;;;;;;;;5019712;28;20049;-70
2021/01/21 12:32:52;;;;;;;1.10;0.60;;;;;;;;;;5020463;28;20050;-69
2021/01/21 12:35:18;;;;;;;1.45;0.73;;;;;;;;;;5015372;28;20050;-70
2021/01/21 12:37:44;;;;;;;2.45;0.60;;;;;;;;;;5017656;28;20057;-70
2021/01/21 12:40:10;;;;;;;0.63;0.40;;;;;;;;;;5017880;28;20049;-70
2021/01/21 12:42:37;;;;;;;1.35;0.50;;;;;;;;;;5016165;28;20049;-69
2021/01/21 12:45:04;;;;;;;0.63;0.40;;;;;;;;;;5019797;28;20077;-70
2021/01/21 12:47:31;;;;;;;2.17;0.50;;;;;;;;;;5019866;28;20068;-70
2021/01/21 12:49:57;;;;;;;1.08;0.43;;;;;;;;;;5015799;28;20138;-70
2021/01/21 12:52:23;;;;;;;0.75;0.60;;;;;;;;;;5018242;28;20050;-70
2021/01/21 12:54:50;;;;;;;1.58;0.57;;;;;;;;;;5016273;28;20050;-70
2021/01/21 12:57:19;;;;;;;0.93;0.80;;;;;;;;;;5017220;28;20077;-70
2021/01/21 12:59:47;;;;;;;0.93;0.80;;;;;;;;;;5017596;28;20496;-69
2021/01/21 13:02:13;;;;;;;1.33;0.90;;;;;;;;;;5016719;28;20049;-69
2021/01/21 13:04:41;;;;;;;0.95;0.60;;;;;;;;;;5017279;28;20069;-70
2021/01/21 13:07:07;;;;;;;1.75;0.85;;;;;;;;;;5019409;28;20458;-70
2021/01/21 13:09:33;;;;;;;1.40;0.75;;;;;;;;;;5020961;28;20128;-70
2021/01/21 13:11:59;;;;;;;1.02;0.90;;;;;;;;;;5021406;28;20053;-69
2021/01/21 13:14:25;;;;;;;1.23;0.70;;;;;;;;;;5005267;28;20100;-70
2021/01/21 13:16:51;;;;;;;0.73;0.68;;;;;;;;;;5021528;28;20095;-69
2021/01/21 13:19:18;;;;;;;2.03;0.57;;;;;;;;;;5020106;28;20497;-71
2021/01/21 13:21:44;;;;;;;1.98;1.15;;;;;;;;;;5020370;28;20131;-71
2021/01/21 13:24:10;;;;;;;2.85;0.88;;;;;;;;;;5021380;28;20050;-71
2021/01/21 13:26:39;;;;;;;3.65;1.30;;;;;;;;;;5017411;28;20046;-72
2021/01/21 13:29:05;;;;;;;1.75;1.10;;;;;;;;;;5022737;28;20049;-74
2021/01/21 13:31:31;;;;;;;4.57;0.70;;;;;;;;;;5019030;28;20105;-73
2021/01/21 13:33:57;;;;;;;0.65;0.63;;;;;;;;;;5016737;28;20049;-72
2021/01/21 13:36:24;;;;;;;0.77;0.75;;;;;;;;;;5019148;28;20050;-74
2021/01/21 13:38:51;;;;;;;1.75;0.95;;;;;;;;;;5017415;28;20049;-74
2021/01/21 13:41:17;;;;;;;0.68;0.52;;;;;;;;;;5022848;28;20054;-74
2021/01/21 13:43:43;;;;;;;0.98;0.50;;;;;;;;;;5020678;28;20041;-73
2021/01/21 13:46:09;;;;;;;3.33;0.60;;;;;;;;;;5018330;28;20112;-74
2021/01/21 13:48:35;;;;;;;0.98;0.70;;;;;;;;;;5021510;28;20080;-74
2021/01/21 13:51:03;;;;;;;1.50;0.70;;;;;;;;;;5019811;28;20061;-74
2021/01/21 13:53:30;;;;;;;1.05;0.50;;;;;;;;;;5022308;28;20049;-72
2021/01/21 13:55:56;;;;;;;1.10;0.90;;;;;;;;;;5020538;28;20046;-74
2021/01/21 13:58:22;;;;;;;0.82;0.75;;;;;;;;;;5017915;28;20045;-72
2021/01/21 14:00:48;;;;;;;0.80;0.50;;;;;;;;;;5020559;28;20085;-72
2021/01/21 14:03:21;;;;;;;3.47;1.27;;;;;;;;;;5020759;28;20625;-73
2021/01/21 14:05:50;;;;;;;1.40;1.00;;;;;;;;;;5020366;28;20049;-74
2021/01/21 14:08:17;;;;;;;0.88;0.50;;;;;;;;;;5017927;28;20103;-74
2021/01/21 14:10:45;;;;;;;1.63;1.25;;;;;;;;;;5021147;28;20042;-73
2021/01/21 14:13:15;;;;;;;2.08;0.70;;;;;;;;;;5018466;28;20426;-71
2021/01/21 14:15:41;;;;;;;1.08;0.77;;;;;;;;;;5020584;28;20045;-71
2021/01/21 14:18:10;;;;;;;2.88;1.40;;;;;;;;;;5018844;28;20470;-73
2021/01/21 14:20:37;;;;;;;1.25;0.70;;;;;;;;;;5019578;28;20050;-72
2021/01/21 14:23:09;;;;;;;0.70;0.60;;;;;;;;;;5021484;28;20496;-74
2021/01/21 14:25:38;;;;;;;1.92;0.70;;;;;;;;;;5019609;28;20065;-72
2021/01/21 14:28:08;;;;;;;1.55;1.45;;;;;;;;;;5020085;28;20050;-70
2021/01/21 14:30:34;;;;;;;3.60;0.98;;;;;;;;;;5015890;28;20081;-71
2021/01/21 14:33:01;;;;;;;1.13;0.43;;;;;;;;;;5017745;28;20057;-72
2021/01/21 14:35:27;;;;;;;1.20;0.47;;;;;;;;;;5016971;28;20050;-72
2021/01/21 14:37:54;;;;;;;1.35;0.50;;;;;;;;;;5019048;28;20062;-72
2021/01/21 14:40:21;;;;;;;0.40;0.40;;;;;;;;;;5019602;28;20054;-71
2021/01/21 14:42:47;;;;;;;0.85;0.50;;;;;;;;;;5019663;28;20057;-71
2021/01/21 14:45:13;;;;;;;0.88;0.50;;;;;;;;;;5014815;28;20574;-71
2021/01/21 14:47:40;;;;;;;2.33;0.52;;;;;;;;;;5018019;28;20049;-72
2021/01/21 14:50:07;;;;;;;0.70;0.57;;;;;;;;;;5017961;28;20096;-72